Rechercher aéroport 
image banner adimage banner adimage banner ad
image banner ad

O20 - Kingdon Airpark

Situé à Lodi, United States

ICAO - O20, IATA -

Données fournies par Airmate  

Information générale

Coordonnées: N38°5'30" W121°21'34"
Élévation : 15 feet MSL.
Variation magnétique : 16° East
Voir autres Aéroports à California

Données opérationnelles

Special qualification required
Heure actuelle UTC:
Heure actuelle locale:
Météo à : KSCK - Stockton Metropolitan ( 24 km )
METAR: KSCK 251155Z AUTO 36004KT 10SM CLR 17/11 A2988 RMK AO2 SLP119 T01720106 10233 20172 52006
TAF: KSCK 251120Z 2512/2612 32009KT P6SM SCT250
Voir NOTAMs / SUP AIP / TFR affectant cet aéroport [VIEW]
Fréquences de communication: [VIEW]

Pistes:

Identifiant RWYQFULongueur (ft)Largeur (ft)SurfaceLDA (ft)
12370560ASPH
30370560ASPH

Coordonnées de l'aéroport

Adresse: Lodi United States

Vue satellite de O20